Terminal Aerodrome Forecast
Issued by NWS

Home | Current Version | Previous Version | Text Only | Print | Product List | Glossary On
Versions: 1 2 3 4 5 6 7 8 9 10 11 12 13
000
FTUS44 KLIX 291100
TAFMCB
TAF
KMCB 291138Z 2912/3012 00000KT P6SM BKN250
     FM291500 12004KT P6SM VCSH SCT040 BKN100
      TEMPO 2920/2924 VRB10G20KT 3SM TSRA SCT030CB BKN040
     FM300600 VRB03KT P6SM OVC025
      TEMPO 3010/3012 5SM BR BKN005=

USA.gov is the U.S. government's official web portal to all federal, state and local government web resources and services.